Time;durP1;ratioP1;P1;durP2;ratioP2;P2;SDS_P1;SDS_P2;PMS_P1;PMS_P2;Temp;Humidity;BMP_temperature;BMP_pressure;BME280_temperature;BME280_humidity;BME280_pressure;Samples;Min_cycle;Max_cycle;Signal;HPM_P1;HPM_P2
2023/03/17 00:00:33;;;;;;;;;;;19.80;41.60;;;;;;5064748;28;19928;-61
2023/03/17 00:03:00;;;;;;;;;;;19.80;41.60;;;;;;5052621;28;19920;-60
2023/03/17 00:05:28;;;;;;;;;;;19.80;41.60;;;;;;5070307;28;20464;-60
2023/03/17 00:07:55;;;;;;;;;;;19.80;41.50;;;;;;5069575;28;19924;-60
2023/03/17 00:10:22;;;;;;;;;;;19.80;41.60;;;;;;5052557;28;19928;-60
2023/03/17 00:12:52;;;;;;;;;;;19.80;41.60;;;;;;5052069;28;20092;-60
2023/03/17 00:15:19;;;;;;;;;;;19.80;41.50;;;;;;5069648;28;19928;-61
2023/03/17 00:17:46;;;;;;;;;;;19.80;41.50;;;;;;5051788;28;20290;-60
2023/03/17 00:20:14;;;;;;;;;;;19.70;41.40;;;;;;5072359;28;20286;-60
2023/03/17 00:22:41;;;;;;;;;;;19.80;41.50;;;;;;5062752;28;19939;-60
2023/03/17 00:25:12;;;;;;;;;;;19.80;41.50;;;;;;5072387;28;19921;-59
2023/03/17 00:27:38;;;;;;;;;;;19.70;41.40;;;;;;5067522;28;20282;-60
2023/03/17 00:30:08;;;;;;;;;;;19.70;41.30;;;;;;5090455;28;19966;-60
2023/03/17 00:32:35;;;;;;;;;;;19.70;41.30;;;;;;5057467;28;20011;-61
2023/03/17 00:35:04;;;;;;;;;;;19.70;41.30;;;;;;5078718;28;20037;-61
2023/03/17 00:37:30;;;;;;;;;;;19.70;41.80;;;;;;5075642;28;19969;-60
2023/03/17 00:39:57;;;;;;;;;;;19.70;41.30;;;;;;5076452;28;19933;-60
2023/03/17 00:42:24;;;;;;;;;;;19.80;41.30;;;;;;5076633;28;19934;-60
2023/03/17 00:44:51;;;;;;;;;;;19.70;41.20;;;;;;5057747;28;19931;-60
2023/03/17 00:47:19;;;;;;;;;;;19.70;41.20;;;;;;5056440;28;19929;-60
2023/03/17 00:49:46;;;;;;;;;;;19.70;41.20;;;;;;5075463;28;19924;-61
2023/03/17 00:52:13;;;;;;;;;;;19.70;41.20;;;;;;5058315;28;20324;-60
2023/03/17 00:54:40;;;;;;;;;;;19.70;41.20;;;;;;5062459;28;19920;-60
2023/03/17 00:57:08;;;;;;;;;;;19.70;41.20;;;;;;5076418;28;19921;-60
2023/03/17 00:59:36;;;;;;;;;;;19.70;41.10;;;;;;5075524;28;20413;-60
2023/03/17 01:02:03;;;;;;;;;;;19.70;41.10;;;;;;5058474;28;19924;-61
2023/03/17 01:04:32;;;;;;;;;;;19.70;41.10;;;;;;5054204;28;19996;-60
2023/03/17 01:06:59;;;;;;;;;;;19.70;41.10;;;;;;5071198;28;19927;-60
2023/03/17 01:09:26;;;;;;;;;;;19.70;41.10;;;;;;5057846;28;20328;-59
2023/03/17 01:11:53;;;;;;;;;;;19.70;41.10;;;;;;5058734;28;19969;-59
2023/03/17 01:14:21;;;;;;;;;;;19.70;41.10;;;;;;5076301;28;19920;-60
2023/03/17 01:16:48;;;;;;;;;;;19.70;41.10;;;;;;5076460;28;19928;-60
2023/03/17 01:19:15;;;;;;;;;;;19.70;41.10;;;;;;5057418;28;19943;-60
2023/03/17 01:21:44;;;;;;;;;;;19.70;41.20;;;;;;5073702;28;19931;-59
2023/03/17 01:24:11;;;;;;;;;;;19.70;41.00;;;;;;5058419;28;19920;-60
2023/03/17 01:26:39;;;;;;;;;;;19.70;41.00;;;;;;5074915;28;19952;-59
2023/03/17 01:29:06;;;;;;;;;;;19.70;41.00;;;;;;5052237;28;19928;-60
2023/03/17 01:31:33;;;;;;;;;;;19.70;41.00;;;;;;5058444;28;20370;-61
2023/03/17 01:34:00;;;;;;;;;;;19.70;41.00;;;;;;5058230;28;19920;-60
2023/03/17 01:36:27;;;;;;;;;;;19.70;41.00;;;;;;5056779;28;19920;-60
2023/03/17 01:38:56;;;;;;;;;;;19.70;41.00;;;;;;5081238;28;19924;-60
2023/03/17 01:41:23;;;;;;;;;;;19.70;41.00;;;;;;5078645;28;20306;-60
2023/03/17 01:43:50;;;;;;;;;;;19.70;41.00;;;;;;5075214;28;20086;-60
2023/03/17 01:46:19;;;;;;;;;;;19.70;40.90;;;;;;5058291;28;19925;-60
2023/03/17 01:48:47;;;;;;;;;;;19.70;40.90;;;;;;5056297;28;19920;-59
2023/03/17 01:51:15;;;;;;;;;;;19.70;40.90;;;;;;5055230;28;19974;-61
2023/03/17 01:53:42;;;;;;;;;;;19.70;40.90;;;;;;5046502;28;20019;-59
2023/03/17 01:56:11;;;;;;;;;;;19.70;40.90;;;;;;5054748;28;19920;-59
2023/03/17 01:58:38;;;;;;;;;;;19.70;40.90;;;;;;5075652;28;19956;-60
2023/03/17 02:01:06;;;;;;;;;;;19.70;40.90;;;;;;5075738;28;19992;-59
2023/03/17 02:03:33;;;;;;;;;;;19.70;40.90;;;;;;5074284;28;19982;-60
2023/03/17 02:06:00;;;;;;;;;;;19.70;40.90;;;;;;5058495;28;19970;-60
2023/03/17 02:08:27;;;;;;;;;;;19.70;40.90;;;;;;5047257;28;20039;-60
2023/03/17 02:10:53;;;;;;;;;;;19.70;40.90;;;;;;5053145;28;19942;-60
2023/03/17 02:13:21;;;;;;;;;;;19.70;40.90;;;;;;5053721;28;19974;-60
2023/03/17 02:15:49;;;;;;;;;;;19.70;40.90;;;;;;5053398;28;19978;-60
2023/03/17 02:18:16;;;;;;;;;;;19.70;40.90;;;;;;5053098;28;19989;-60
2023/03/17 02:21:01;;;;;;;;;;;19.70;40.90;;;;;;5053804;28;19982;-60
2023/03/17 02:23:29;;;;;;;;;;;19.70;40.90;;;;;;5018243;28;19920;-61
2023/03/17 02:25:56;;;;;;;;;;;19.70;40.90;;;;;;5053074;28;20351;-61
2023/03/17 02:28:24;;;;;;;;;;;19.70;40.90;;;;;;5041389;28;19932;-61
2023/03/17 02:30:51;;;;;;;;;;;19.70;40.90;;;;;;5053236;28;19921;-60
2023/03/17 02:33:18;;;;;;;;;;;19.70;40.90;;;;;;5054355;28;19931;-60
2023/03/17 02:35:45;;;;;;;;;;;19.70;40.80;;;;;;5070849;28;19974;-61
2023/03/17 02:38:11;;;;;;;;;;;19.70;40.80;;;;;;5070718;28;19921;-59
2023/03/17 02:40:40;;;;;;;;;;;19.70;40.90;;;;;;5054639;28;19931;-59
2023/03/17 02:43:07;;;;;;;;;;;19.70;40.80;;;;;;5071517;28;19920;-60
2023/03/17 02:45:34;;;;;;;;;;;19.70;40.90;;;;;;5050591;28;20338;-61
2023/03/17 02:48:02;;;;;;;;;;;19.70;40.90;;;;;;5054110;28;20015;-62
2023/03/17 02:50:30;;;;;;;;;;;19.70;40.90;;;;;;5053837;28;19920;-61
2023/03/17 02:52:57;;;;;;;;;;;19.70;40.90;;;;;;5070863;28;19929;-61
2023/03/17 02:55:25;;;;;;;;;;;19.70;40.90;;;;;;5052779;28;19963;-62
2023/03/17 02:57:53;;;;;;;;;;;19.70;40.90;;;;;;5071485;28;19968;-61
2023/03/17 03:00:20;;;;;;;;;;;19.70;40.80;;;;;;5048780;28;19921;-62
2023/03/17 03:02:47;;;;;;;;;;;19.70;40.80;;;;;;5037011;28;20381;-62
2023/03/17 03:05:13;;;;;;;;;;;19.70;40.80;;;;;;5053164;28;19967;-61
2023/03/17 03:07:41;;;;;;;;;;;19.70;40.80;;;;;;5053167;28;19974;-61
2023/03/17 03:10:08;;;;;;;;;;;19.70;40.80;;;;;;5065315;28;20392;-61
2023/03/17 03:12:35;;;;;;;;;;;19.70;40.80;;;;;;5073594;28;19920;-61
2023/03/17 03:15:04;;;;;;;;;;;19.70;40.80;;;;;;5080968;28;19921;-62
2023/03/17 03:17:30;;;;;;;;;;;19.70;40.70;;;;;;5039571;28;19967;-61
2023/03/17 03:19:58;;;;;;;;;;;19.60;40.60;;;;;;5060935;28;19921;-62
2023/03/17 03:22:24;;;;;;;;;;;19.70;40.70;;;;;;5052969;28;19928;-62
2023/03/17 03:24:51;;;;;;;;;;;19.70;40.70;;;;;;5052944;28;20366;-61
2023/03/17 03:27:18;;;;;;;;;;;19.70;40.70;;;;;;5051642;28;19920;-61
2023/03/17 03:29:45;;;;;;;;;;;19.60;40.60;;;;;;5052144;28;19920;-62
2023/03/17 03:32:13;;;;;;;;;;;19.60;40.60;;;;;;5052405;28;19929;-61
2023/03/17 03:34:40;;;;;;;;;;;19.70;41.30;;;;;;5050972;28;19928;-61
2023/03/17 03:37:07;;;;;;;;;;;19.70;40.70;;;;;;5053081;28;19975;-61
2023/03/17 03:39:33;;;;;;;;;;;19.70;40.70;;;;;;5052740;28;20076;-61
2023/03/17 03:42:00;;;;;;;;;;;19.70;40.70;;;;;;5052898;28;19970;-61
2023/03/17 03:44:27;;;;;;;;;;;19.60;41.20;;;;;;5069540;28;19924;-62
2023/03/17 03:46:54;;;;;;;;;;;19.60;40.60;;;;;;5071066;28;19924;-62
2023/03/17 03:49:23;;;;;;;;;;;19.70;40.70;;;;;;5051776;28;19927;-61
2023/03/17 03:51:49;;;;;;;;;;;19.60;40.60;;;;;;5070238;28;19955;-62
2023/03/17 03:54:16;;;;;;;;;;;19.60;40.60;;;;;;5035531;28;19974;-61
2023/03/17 03:56:43;;;;;;;;;;;19.60;40.60;;;;;;5052511;28;19994;-62
2023/03/17 03:59:10;;;;;;;;;;;19.70;40.60;;;;;;5070620;28;20042;-61
2023/03/17 04:01:37;;;;;;;;;;;19.60;40.50;;;;;;5052436;28;19966;-62
2023/03/17 04:04:04;;;;;;;;;;;19.60;40.50;;;;;;5051419;28;19990;-61
2023/03/17 04:06:32;;;;;;;;;;;19.70;40.60;;;;;;5047178;28;19975;-62
2023/03/17 04:08:59;;;;;;;;;;;19.70;40.60;;;;;;5048952;28;19978;-62
2023/03/17 04:11:26;;;;;;;;;;;19.60;40.50;;;;;;5051765;28;19924;-62
2023/03/17 04:13:53;;;;;;;;;;;19.60;40.50;;;;;;5066696;28;20015;-62
2023/03/17 04:16:20;;;;;;;;;;;19.60;40.50;;;;;;5069786;28;20062;-62
2023/03/17 04:18:46;;;;;;;;;;;19.60;40.50;;;;;;5070054;28;19921;-61
2023/03/17 04:21:17;;;;;;;;;;;19.60;40.50;;;;;;5070158;28;20259;-62
2023/03/17 04:23:45;;;;;;;;;;;19.60;40.50;;;;;;5050273;28;20019;-62
2023/03/17 04:26:12;;;;;;;;;;;19.60;40.50;;;;;;5068673;28;20373;-61
2023/03/17 04:28:39;;;;;;;;;;;19.60;40.50;;;;;;5090140;28;20028;-61
2023/03/17 04:31:06;;;;;;;;;;;19.60;40.50;;;;;;5090097;28;19920;-61
2023/03/17 04:33:33;;;;;;;;;;;19.60;40.40;;;;;;5056295;28;19926;-61
2023/03/17 04:36:00;;;;;;;;;;;19.60;41.10;;;;;;5066212;28;19927;-62
2023/03/17 04:38:26;;;;;;;;;;;19.60;40.50;;;;;;5082723;28;19951;-61
2023/03/17 04:40:54;;;;;;;;;;;19.60;40.40;;;;;;5058431;28;20316;-61
2023/03/17 04:43:21;;;;;;;;;;;19.60;40.40;;;;;;5088810;28;19926;-61
2023/03/17 04:45:49;;;;;;;;;;;19.60;40.40;;;;;;5061423;28;19946;-61
2023/03/17 04:48:15;;;;;;;;;;;19.60;40.40;;;;;;5052157;28;19924;-61
2023/03/17 04:50:43;;;;;;;;;;;19.60;40.40;;;;;;5051727;28;19928;-62
2023/03/17 04:53:09;;;;;;;;;;;19.60;40.40;;;;;;5052131;28;19924;-62
2023/03/17 04:55:36;;;;;;;;;;;19.60;40.40;;;;;;5050135;28;19927;-62
2023/03/17 04:58:04;;;;;;;;;;;19.60;40.40;;;;;;5051976;28;20042;-61
2023/03/17 05:00:37;;;;;;;;;;;19.60;40.30;;;;;;5068947;28;19924;-61
2023/03/17 05:03:05;;;;;;;;;;;19.60;40.40;;;;;;5051473;28;19974;-61
2023/03/17 05:05:31;;;;;;;;;;;19.60;40.40;;;;;;5043121;28;19920;-61
2023/03/17 05:07:58;;;;;;;;;;;19.60;40.40;;;;;;5071322;28;19969;-62
2023/03/17 05:10:25;;;;;;;;;;;19.60;40.30;;;;;;5062074;28;19960;-61
2023/03/17 05:12:52;;;;;;;;;;;19.60;40.30;;;;;;5051153;28;19964;-62
2023/03/17 05:15:20;;;;;;;;;;;19.60;40.30;;;;;;5069083;28;19928;-62
2023/03/17 05:17:47;;;;;;;;;;;19.60;40.30;;;;;;5050979;28;19920;-60
2023/03/17 05:20:14;;;;;;;;;;;19.60;40.30;;;;;;5054402;28;20320;-60
2023/03/17 05:22:41;;;;;;;;;;;19.60;40.30;;;;;;5055375;28;19920;-61
2023/03/17 05:25:08;;;;;;;;;;;19.60;40.30;;;;;;5051639;28;19933;-60
2023/03/17 05:27:35;;;;;;;;;;;19.60;40.30;;;;;;5037703;28;19932;-61
2023/03/17 05:30:02;;;;;;;;;;;19.60;40.20;;;;;;5058771;28;19981;-60
2023/03/17 05:32:30;;;;;;;;;;;19.60;40.30;;;;;;5093328;28;19934;-60
2023/03/17 05:34:57;;;;;;;;;;;19.60;40.20;;;;;;5061491;28;19920;-60
2023/03/17 05:37:24;;;;;;;;;;;19.60;40.30;;;;;;5055384;28;19921;-60
2023/03/17 05:39:52;;;;;;;;;;;19.60;40.20;;;;;;5054675;28;19921;-59
2023/03/17 05:42:19;;;;;;;;;;;19.60;40.20;;;;;;5071136;28;19936;-59
2023/03/17 05:44:46;;;;;;;;;;;19.60;40.20;;;;;;5053670;28;19925;-60
2023/03/17 05:47:12;;;;;;;;;;;19.60;40.20;;;;;;5075282;28;19966;-60
2023/03/17 05:49:40;;;;;;;;;;;19.60;40.20;;;;;;5073521;28;19920;-60
2023/03/17 05:52:07;;;;;;;;;;;19.60;40.20;;;;;;5054114;28;20010;-61
2023/03/17 05:54:34;;;;;;;;;;;19.60;40.80;;;;;;5053562;28;20011;-59
2023/03/17 05:57:01;;;;;;;;;;;19.60;40.20;;;;;;5054717;28;19924;-61
2023/03/17 05:59:28;;;;;;;;;;;19.60;40.20;;;;;;5068794;28;19920;-61
2023/03/17 06:01:55;;;;;;;;;;;19.60;40.20;;;;;;5052397;28;19928;-60
2023/03/17 06:04:22;;;;;;;;;;;19.60;40.10;;;;;;5053859;28;20374;-61
2023/03/17 06:06:50;;;;;;;;;;;19.60;40.10;;;;;;5071596;28;19920;-61
2023/03/17 06:09:19;;;;;;;;;;;19.60;40.10;;;;;;5068825;28;22979;-60
2023/03/17 06:11:46;;;;;;;;;;;19.60;40.10;;;;;;5053827;28;19925;-61
2023/03/17 06:14:13;;;;;;;;;;;19.60;40.10;;;;;;5053069;28;19921;-60
2023/03/17 06:16:40;;;;;;;;;;;19.60;40.10;;;;;;5071044;28;20003;-61
2023/03/17 06:19:06;;;;;;;;;;;19.60;40.10;;;;;;5054145;28;20409;-61
2023/03/17 06:21:33;;;;;;;;;;;19.60;40.10;;;;;;5053202;28;19920;-60
2023/03/17 06:24:01;;;;;;;;;;;19.60;40.10;;;;;;5053521;28;19943;-61
2023/03/17 06:26:28;;;;;;;;;;;19.60;40.10;;;;;;5052064;28;19920;-61
2023/03/17 06:28:55;;;;;;;;;;;19.60;40.00;;;;;;5070996;28;19966;-60
2023/03/17 06:31:22;;;;;;;;;;;19.60;40.10;;;;;;5067469;28;19951;-60
2023/03/17 06:33:49;;;;;;;;;;;19.60;40.10;;;;;;5052511;28;19927;-61
2023/03/17 06:36:16;;;;;;;;;;;19.60;40.00;;;;;;5053531;28;19924;-60
2023/03/17 06:38:44;;;;;;;;;;;19.60;40.00;;;;;;5050160;28;19920;-62
2023/03/17 06:41:13;;;;;;;;;;;19.60;40.10;;;;;;5062800;28;19931;-61
2023/03/17 06:43:43;;;;;;;;;;;19.60;40.10;;;;;;5055016;28;19920;-61
2023/03/17 06:46:10;;;;;;;;;;;19.60;40.10;;;;;;5062455;28;19931;-61
2023/03/17 06:48:37;;;;;;;;;;;19.60;40.20;;;;;;5051539;28;19963;-61
2023/03/17 06:51:04;;;;;;;;;;;19.60;40.20;;;;;;5057055;28;19920;-61
2023/03/17 06:53:31;;;;;;;;;;;19.60;40.20;;;;;;5071344;28;20290;-61
2023/03/17 06:55:57;;;;;;;;;;;19.60;40.20;;;;;;5067314;28;19925;-60
2023/03/17 06:58:25;;;;;;;;;;;19.60;40.20;;;;;;5071208;28;19951;-60
2023/03/17 07:00:53;;;;;;;;;;;19.60;40.20;;;;;;5053212;28;20001;-60
2023/03/17 07:03:20;;;;;;;;;;;19.60;40.10;;;;;;5053800;28;19931;-61
2023/03/17 07:05:47;;;;;;;;;;;19.60;40.20;;;;;;5063648;28;19997;-61
2023/03/17 07:08:14;;;;;;;;;;;19.60;40.20;;;;;;5067936;28;19964;-61
2023/03/17 07:10:41;;;;;;;;;;;19.60;40.20;;;;;;5063691;28;19970;-60
2023/03/17 07:13:09;;;;;;;;;;;19.60;40.20;;;;;;5068640;28;19974;-61
2023/03/17 07:15:37;;;;;;;;;;;19.60;40.20;;;;;;5066380;28;20000;-61
2023/03/17 07:18:05;;;;;;;;;;;19.60;40.20;;;;;;5066358;28;19998;-61
2023/03/17 07:20:31;;;;;;;;;;;19.60;40.20;;;;;;5056376;28;20297;-61
2023/03/17 07:23:00;;;;;;;;;;;19.60;40.20;;;;;;5063522;28;20305;-61
2023/03/17 07:25:27;;;;;;;;;;;19.60;40.20;;;;;;5069814;28;19966;-60
2023/03/17 07:27:55;;;;;;;;;;;19.60;40.20;;;;;;5063205;28;20378;-61
2023/03/17 07:30:22;;;;;;;;;;;19.60;40.20;;;;;;5061898;28;19925;-62
2023/03/17 07:32:50;;;;;;;;;;;19.60;40.20;;;;;;5070741;28;19924;-60
2023/03/17 07:35:18;;;;;;;;;;;19.60;40.20;;;;;;5061803;28;19920;-60
2023/03/17 07:37:44;;;;;;;;;;;19.60;40.20;;;;;;5067583;28;19960;-61
2023/03/17 07:40:12;;;;;;;;;;;19.60;40.20;;;;;;5056609;28;19925;-60
2023/03/17 07:42:38;;;;;;;;;;;19.60;40.20;;;;;;5062840;28;19921;-60
2023/03/17 07:45:06;;;;;;;;;;;19.60;40.20;;;;;;5056763;28;19989;-61
2023/03/17 07:47:33;;;;;;;;;;;19.60;40.20;;;;;;5051376;28;19920;-60
2023/03/17 07:50:01;;;;;;;;;;;19.60;40.20;;;;;;5069370;28;19947;-60
2023/03/17 07:52:28;;;;;;;;;;;19.60;40.20;;;;;;5061665;28;19920;-61
2023/03/17 07:54:56;;;;;;;;;;;19.60;40.20;;;;;;5055760;28;19920;-61
2023/03/17 07:57:23;;;;;;;;;;;19.60;40.20;;;;;;5058594;28;19920;-60
2023/03/17 07:59:50;;;;;;;;;;;19.60;40.20;;;;;;5055712;28;19966;-60
2023/03/17 08:02:18;;;;;;;;;;;19.60;40.20;;;;;;5055622;28;19924;-61
2023/03/17 08:04:45;;;;;;;;;;;19.60;40.20;;;;;;5063938;28;19928;-60
2023/03/17 08:07:13;;;;;;;;;;;19.60;40.20;;;;;;5066863;28;19932;-60
2023/03/17 08:09:40;;;;;;;;;;;19.60;40.20;;;;;;5061499;28;19974;-60
2023/03/17 08:12:08;;;;;;;;;;;19.60;40.20;;;;;;5049897;28;19952;-61
2023/03/17 08:14:34;;;;;;;;;;;19.60;40.20;;;;;;5057207;28;20023;-61
2023/03/17 08:17:01;;;;;;;;;;;19.60;40.20;;;;;;5066848;28;19920;-61
2023/03/17 08:19:28;;;;;;;;;;;19.60;40.20;;;;;;5059790;28;19920;-61
2023/03/17 08:21:55;;;;;;;;;;;19.60;40.20;;;;;;5057089;28;19920;-61
2023/03/17 08:24:23;;;;;;;;;;;19.60;40.20;;;;;;5066767;28;19978;-60
2023/03/17 08:26:49;;;;;;;;;;;19.60;40.20;;;;;;5059785;28;19974;-62
2023/03/17 08:29:17;;;;;;;;;;;19.60;40.20;;;;;;5069185;28;19932;-61
2023/03/17 08:31:44;;;;;;;;;;;19.60;40.20;;;;;;5065160;28;20015;-62
2023/03/17 08:34:11;;;;;;;;;;;19.60;40.20;;;;;;5058455;28;19990;-60
2023/03/17 08:36:37;;;;;;;;;;;19.60;40.20;;;;;;5066446;28;19971;-61
2023/03/17 08:39:04;;;;;;;;;;;19.60;40.20;;;;;;5050252;28;19971;-61
2023/03/17 08:41:32;;;;;;;;;;;19.60;40.20;;;;;;5049311;28;19986;-59
2023/03/17 08:43:59;;;;;;;;;;;19.60;40.20;;;;;;5067464;28;19921;-60
2023/03/17 08:46:27;;;;;;;;;;;19.60;40.20;;;;;;5068945;28;19989;-62
2023/03/17 08:48:55;;;;;;;;;;;19.60;40.20;;;;;;5058250;28;19920;-60
2023/03/17 08:51:21;;;;;;;;;;;19.70;40.30;;;;;;5067493;28;19920;-60
2023/03/17 08:53:48;;;;;;;;;;;19.60;40.20;;;;;;5058427;28;19932;-61
2023/03/17 08:56:15;;;;;;;;;;;19.60;40.20;;;;;;5072303;28;19920;-61
2023/03/17 08:58:44;;;;;;;;;;;19.60;40.20;;;;;;5070068;28;19924;-61
2023/03/17 09:01:11;;;;;;;;;;;19.60;40.20;;;;;;5071087;28;19963;-61
2023/03/17 09:03:39;;;;;;;;;;;19.60;40.20;;;;;;5065144;28;19966;-61
2023/03/17 09:06:06;;;;;;;;;;;19.60;40.20;;;;;;5062380;28;19969;-61
2023/03/17 09:08:33;;;;;;;;;;;19.70;40.30;;;;;;5059011;28;20036;-61
2023/03/17 09:11:01;;;;;;;;;;;19.70;40.30;;;;;;5071836;28;19970;-60
2023/03/17 09:13:28;;;;;;;;;;;19.60;40.20;;;;;;5071583;28;19967;-61
2023/03/17 09:15:56;;;;;;;;;;;19.60;40.20;;;;;;5072549;28;19924;-61
2023/03/17 09:18:23;;;;;;;;;;;19.60;40.20;;;;;;5070875;28;19920;-62
2023/03/17 09:20:49;;;;;;;;;;;19.70;40.30;;;;;;5063278;28;19944;-62
2023/03/17 09:23:16;;;;;;;;;;;19.70;40.30;;;;;;5053612;28;19960;-61
2023/03/17 09:25:43;;;;;;;;;;;19.70;40.30;;;;;;5073085;28;19931;-62
2023/03/17 09:28:10;;;;;;;;;;;19.70;40.30;;;;;;5059655;28;19947;-61
2023/03/17 09:30:37;;;;;;;;;;;19.70;40.30;;;;;;5057350;28;19993;-62
2023/03/17 09:33:05;;;;;;;;;;;19.70;40.30;;;;;;5070266;28;20267;-61
2023/03/17 09:35:32;;;;;;;;;;;19.60;40.30;;;;;;5070196;28;19931;-62
2023/03/17 09:37:59;;;;;;;;;;;19.60;40.20;;;;;;5063656;28;19925;-61
2023/03/17 09:40:30;;;;;;;;;;;19.70;40.30;;;;;;5071629;28;19928;-62
2023/03/17 09:42:58;;;;;;;;;;;19.70;40.30;;;;;;5067233;28;20015;-62
2023/03/17 09:45:30;;;;;;;;;;;19.70;40.40;;;;;;5054862;28;19932;-60
2023/03/17 09:48:00;;;;;;;;;;;19.70;40.30;;;;;;5064697;28;20011;-62
2023/03/17 09:50:29;;;;;;;;;;;19.70;40.30;;;;;;5070852;28;20301;-60
2023/03/17 09:52:56;;;;;;;;;;;19.70;40.40;;;;;;5057816;28;19921;-62
2023/03/17 09:55:23;;;;;;;;;;;19.70;40.40;;;;;;5071282;28;19920;-61
2023/03/17 09:57:50;;;;;;;;;;;19.70;40.40;;;;;;5069936;28;19924;-61
2023/03/17 10:00:18;;;;;;;;;;;19.70;40.40;;;;;;5070390;28;19924;-60
2023/03/17 10:02:44;;;;;;;;;;;19.70;40.40;;;;;;5056644;28;19931;-59
2023/03/17 10:05:16;;;;;;;;;;;19.70;40.40;;;;;;5056988;28;19920;-60
2023/03/17 10:07:47;;;;;;;;;;;19.70;40.40;;;;;;5070167;28;20050;-61
2023/03/17 10:10:14;;;;;;;;;;;19.70;40.40;;;;;;5055983;28;19956;-60
2023/03/17 10:12:43;;;;;;;;;;;19.70;40.40;;;;;;5058859;28;19973;-60
2023/03/17 10:15:13;;;;;;;;;;;19.70;40.50;;;;;;5070624;28;19940;-60
2023/03/17 10:17:40;;;;;;;;;;;19.70;40.40;;;;;;5056996;28;19920;-60
2023/03/17 10:20:09;;;;;;;;;;;19.70;40.50;;;;;;5056071;28;20382;-61
2023/03/17 10:22:37;;;;;;;;;;;19.70;40.50;;;;;;5058957;28;19991;-60
2023/03/17 10:25:08;;;;;;;;;;;19.80;40.60;;;;;;5070285;28;19920;-61
2023/03/17 10:27:35;;;;;;;;;;;19.80;40.60;;;;;;5068406;28;19931;-60
2023/03/17 10:30:02;;;;;;;;;;;19.80;40.60;;;;;;5070454;28;20001;-61
2023/03/17 10:32:29;;;;;;;;;;;19.80;40.60;;;;;;5068064;28;19978;-60
2023/03/17 10:34:56;;;;;;;;;;;19.80;40.60;;;;;;5070654;28;19998;-62
2023/03/17 10:37:23;;;;;;;;;;;19.80;40.70;;;;;;5068576;28;19928;-61
2023/03/17 10:39:51;;;;;;;;;;;19.80;40.60;;;;;;5067997;28;19921;-61
2023/03/17 10:42:23;;;;;;;;;;;19.80;40.70;;;;;;5059019;28;20358;-54
2023/03/17 10:44:50;;;;;;;;;;;19.80;40.70;;;;;;5068722;28;19921;-49
2023/03/17 10:47:20;;;;;;;;;;;19.80;40.70;;;;;;5076024;28;19960;-53
2023/03/17 10:49:47;;;;;;;;;;;19.80;40.60;;;;;;5074853;28;19974;-54
2023/03/17 10:52:17;;;;;;;;;;;19.80;40.40;;;;;;5074043;28;19921;-55
2023/03/17 10:54:46;;;;;;;;;;;19.80;40.30;;;;;;5064145;28;19987;-57
2023/03/17 10:57:14;;;;;;;;;;;19.80;40.30;;;;;;5073077;28;19921;-58
2023/03/17 10:59:43;;;;;;;;;;;19.80;40.30;;;;;;5066027;28;19928;-60
2023/03/17 11:02:17;;;;;;;;;;;19.80;40.30;;;;;;5058202;28;19924;-57
2023/03/17 11:04:44;;;;;;;;;;;19.80;40.20;;;;;;5076302;28;19943;-56
2023/03/17 11:07:15;;;;;;;;;;;19.80;40.10;;;;;;5074944;28;20587;-59
2023/03/17 11:09:42;;;;;;;;;;;19.80;40.20;;;;;;5072336;28;20029;-55
2023/03/17 11:12:19;;;;;;;;;;;19.80;40.20;;;;;;5064858;28;19924;-53
2023/03/17 11:14:47;;;;;;;;;;;19.80;40.10;;;;;;5067537;28;19924;-52
2023/03/17 11:17:16;;;;;;;;;;;19.80;40.10;;;;;;5072107;28;19936;-54
2023/03/17 11:19:44;;;;;;;;;;;19.80;40.00;;;;;;5073931;28;20019;-48
2023/03/17 11:22:11;;;;;;;;;;;19.80;39.90;;;;;;5072878;28;19932;-55
2023/03/17 11:24:41;;;;;;;;;;;19.80;39.90;;;;;;5068005;28;19926;-52
2023/03/17 11:27:10;;;;;;;;;;;19.80;39.80;;;;;;5057499;28;19965;-56
2023/03/17 11:29:40;;;;;;;;;;;19.80;39.70;;;;;;5067251;28;19927;-54
2023/03/17 11:32:22;;;;;;;;;;;19.80;39.80;;;;;;5066974;28;19997;-57
2023/03/17 11:34:55;;;;;;;;;;;19.80;39.70;;;;;;5062668;28;19928;-55
2023/03/17 11:37:26;;;;;;;;;;;19.80;39.60;;;;;;5069348;28;20252;-54
2023/03/17 11:39:53;;;;;;;;;;;19.80;39.60;;;;;;5056855;28;19974;-56
2023/03/17 11:42:21;;;;;;;;;;;19.80;39.60;;;;;;5068406;28;19952;-58
2023/03/17 11:45:07;;;;;;;;;;;19.80;39.60;;;;;;5053162;28;19966;-56
2023/03/17 11:47:52;;;;;;;;;;;19.80;39.50;;;;;;5052694;28;19927;-56
2023/03/17 11:50:23;;;;;;;;;;;19.80;39.50;;;;;;5057403;28;19977;-57
2023/03/17 11:52:53;;;;;;;;;;;19.80;39.40;;;;;;5056650;28;20350;-55
2023/03/17 11:55:21;;;;;;;;;;;19.80;39.40;;;;;;5050774;28;19921;-54
2023/03/17 11:57:48;;;;;;;;;;;19.80;39.40;;;;;;5066082;28;19920;-56
2023/03/17 12:00:16;;;;;;;;;;;19.80;39.40;;;;;;5067421;28;19970;-55
2023/03/17 12:02:43;;;;;;;;;;;19.80;39.40;;;;;;5067884;28;19947;-53
2023/03/17 12:05:10;;;;;;;;;;;19.80;39.50;;;;;;5053975;28;19928;-54
2023/03/17 12:07:40;;;;;;;;;;;19.80;39.40;;;;;;5053848;28;19970;-53
2023/03/17 12:10:10;;;;;;;;;;;19.80;39.40;;;;;;5057349;28;19931;-55
2023/03/17 12:12:37;;;;;;;;;;;19.80;39.20;;;;;;5064199;28;19925;-51
2023/03/17 12:15:05;;;;;;;;;;;19.80;39.10;;;;;;5066843;28;20309;-54
2023/03/17 12:17:33;;;;;;;;;;;19.80;39.00;;;;;;5066647;28;19974;-54
2023/03/17 12:20:05;;;;;;;;;;;19.80;39.00;;;;;;5065892;28;19939;-56
2023/03/17 12:22:34;;;;;;;;;;;19.80;38.80;;;;;;5069990;28;19932;-53
2023/03/17 12:25:05;;;;;;;;;;;19.80;38.50;;;;;;5074815;28;19942;-56
2023/03/17 12:27:32;;;;;;;;;;;19.80;38.40;;;;;;5062078;28;19928;-53
2023/03/17 12:29:59;;;;;;;;;;;19.80;38.90;;;;;;5068308;28;19963;-55
2023/03/17 12:32:26;;;;;;;;;;;19.80;38.20;;;;;;5067886;28;19931;-53
2023/03/17 12:34:54;;;;;;;;;;;19.80;38.70;;;;;;5067037;28;19932;-55
2023/03/17 12:37:21;;;;;;;;;;;19.80;38.10;;;;;;5068396;28;19920;-53
2023/03/17 12:39:50;;;;;;;;;;;19.80;38.00;;;;;;5058047;28;19947;-54
2023/03/17 12:42:20;;;;;;;;;;;19.80;37.80;;;;;;5058057;28;20236;-53
2023/03/17 12:45:01;;;;;;;;;;;19.80;37.20;;;;;;5066542;28;20315;-50
2023/03/17 12:47:44;;;;;;;;;;;19.70;36.20;;;;;;5066125;28;19921;-51
2023/03/17 12:50:31;;;;;;;;;;;19.70;36.30;;;;;;5067057;28;19940;-54
2023/03/17 12:53:09;;;;;;;;;;;19.70;36.30;;;;;;5065226;28;19924;-55
2023/03/17 12:55:36;;;;;;;;;;;19.60;36.00;;;;;;5063010;28;19968;-55
2023/03/17 12:58:05;;;;;;;;;;;19.60;35.60;;;;;;5065335;28;19970;-55
2023/03/17 13:00:33;;;;;;;;;;;19.60;35.30;;;;;;5066810;28;19920;-54
2023/03/17 13:03:13;;;;;;;;;;;19.50;35.40;;;;;;5060551;28;20329;-55
2023/03/17 13:05:41;;;;;;;;;;;19.50;35.50;;;;;;5052518;28;20039;-53
2023/03/17 13:08:10;;;;;;;;;;;19.50;35.70;;;;;;5065983;28;19924;-51
2023/03/17 13:10:39;;;;;;;;;;;19.50;35.90;;;;;;5067301;28;19924;-51
2023/03/17 13:13:16;;;;;;;;;;;19.50;35.90;;;;;;5067562;28;20044;-54
2023/03/17 13:15:51;;;;;;;;;;;19.40;35.40;;;;;;5066752;28;19924;-56
2023/03/17 13:18:27;;;;;;;;;;;19.50;35.50;;;;;;5062045;28;19934;-54
2023/03/17 13:21:09;;;;;;;;;;;19.40;35.60;;;;;;5052718;28;19924;-54
2023/03/17 13:23:37;;;;;;;;;;;19.40;35.50;;;;;;5037873;28;19920;-54
2023/03/17 13:26:04;;;;;;;;;;;19.40;35.70;;;;;;5065598;28;19929;-55
2023/03/17 13:28:41;;;;;;;;;;;19.40;35.80;;;;;;5065911;28;19924;-54
2023/03/17 13:31:10;;;;;;;;;;;19.40;35.80;;;;;;5065393;28;19921;-55
2023/03/17 13:33:41;;;;;;;;;;;19.40;35.80;;;;;;5069682;28;19920;-55
2023/03/17 13:36:32;;;;;;;;;;;19.40;35.90;;;;;;5059274;28;19932;-54
2023/03/17 13:39:07;;;;;;;;;;;19.40;36.10;;;;;;5050277;28;19924;-53
2023/03/17 13:41:43;;;;;;;;;;;19.40;36.10;;;;;;5064250;28;19921;-54
2023/03/17 13:44:22;;;;;;;;;;;19.40;35.80;;;;;;5070652;28;19921;-55
2023/03/17 13:46:49;;;;;;;;;;;19.40;35.90;;;;;;5069324;28;20377;-53
2023/03/17 13:49:20;;;;;;;;;;;19.40;36.10;;;;;;5070488;28;19928;-53
2023/03/17 13:51:51;;;;;;;;;;;19.50;36.40;;;;;;5069433;28;19986;-54
2023/03/17 13:54:20;;;;;;;;;;;19.50;36.60;;;;;;5066653;28;19971;-55
2023/03/17 13:56:47;;;;;;;;;;;19.40;36.60;;;;;;5069234;28;19926;-59
2023/03/17 13:59:14;;;;;;;;;;;19.50;36.80;;;;;;5071030;28;19956;-63
2023/03/17 14:01:43;;;;;;;;;;;19.50;37.00;;;;;;5069163;28;19937;-59
2023/03/17 14:04:16;;;;;;;;;;;19.50;37.10;;;;;;5069018;28;19943;-63
2023/03/17 14:06:43;;;;;;;;;;;19.50;37.20;;;;;;5067630;28;19924;-59
2023/03/17 14:09:11;;;;;;;;;;;19.50;37.30;;;;;;5070747;28;19924;-60
2023/03/17 14:11:38;;;;;;;;;;;19.50;37.40;;;;;;5063526;28;19927;-60
2023/03/17 14:14:10;;;;;;;;;;;19.60;37.60;;;;;;5067792;28;19927;-59
2023/03/17 14:16:41;;;;;;;;;;;19.60;37.70;;;;;;5069342;28;19982;-61
2023/03/17 14:19:22;;;;;;;;;;;19.60;37.80;;;;;;5063665;28;19982;-60
2023/03/17 14:21:49;;;;;;;;;;;19.60;37.90;;;;;;5066798;28;19931;-60